Tiempo atmosférico en la estación meteorológica de Puntagorda, Santa Cruz de Tenerife (684 m.)



Fecha
DESCASC
Temp. máxima en grados centígrados (hora)
DESCASC
Temp. mínima en grados centígrados (hora)
DESCASC
Temp. media en grados centígrados
DESCASC
Racha de viento máxima en m/sg (hora)
DESCASC
Velocidad máxima media en intervalos de 10 minutos(hora)
DESCASC
Precipitaciones diarias en mm
DESCASC
Precipitaciones de 00:00 a 06:00 en mm
DESCASC
Precipitaciones de 06:00 a 12:00 en mm
DESCASC
Precipitaciones de 12:00 a 18:00 en mm
DESCASC
Precipitaciones de 18:00 a 24:00 en mm
DESCASC
26-11-2020 13.9 (14:30) 10.3 (19:50) 12.1 17.78 (20:50) 10.83 (20:30) 5 0.2 2 0.8 2
25-11-2020 18 (13:10) 11.6 (20:50) 14.8 15.56 (20:00) 10 (20:00) 1.4 0 0 1.4 0
24-11-2020 22.3 (12:30) 14.6 (22:00) 18.4 5.56 (13:20) 3.61 (02:30) 0 0 0 0 0
23-11-2020 22.6 (16:10) 15.2 (07:20) 18.9 9.17 (13:20) 5.83 (14:50) 0 0 0 0 0
22-11-2020 23.2 (15:30) 15.2 (00:00) 19.2 5.28 (14:30) 3.61 (02:30) 0 0 0 0 0
21-11-2020 23.1 (13:30) 15.5 (00:00) 19.3 5.83 (14:20) 3.61 (03:00) 0 0 0 0 0
20-11-2020 22.6 (14:40) 14 (00:00) 18.3 5.83 (20:40) 3.61 (00:30) 0 0 0 0 0
19-11-2020 18 (15:50) 14.1 (00:00) 16.1 9.17 (07:20) 4.72 (06:40) 0 0 0 0 0
18-11-2020 26.5 (14:10) 16.8 (00:00) 21.6 5 (14:20) 3.33 (21:40) 0 0 0 0 0
17-11-2020 27.6 (14:10) 19.7 (00:00) 23.7 11.94 (14:40) 7.5 (14:40) 0 0 0 0 0
16-11-2020 23.7 (16:00) 15.1 (00:00) 19.4 6.67 (15:30) 4.44 (13:50) 0.2 0 0.2 0 0
15-11-2020 18.2 (12:50) 15.8 (00:00) 17 13.61 (00:30) 9.17 (02:20) 1.2 1 0 0.2 0
14-11-2020 21.3 (12:30) 17 (00:00) 19.1 18.06 (10:30) 11.94 (10:30) 0.2 0 0 0 0.2
13-11-2020 25.6 (12:10) 17.7 (00:00) 21.7 15 (21:50) 10 (21:30) 0 0 0 0 0
12-11-2020 23.2 (17:10) 17.7 (00:00) 20.5 4.72 (12:30) 3.33 (21:10) 0 0 0 0 0
11-11-2020 19.8 (23:59) 13.5 (00:00) 16.6 6.11 (20:30) 4.17 (22:50) 0 0 0 0 0
10-11-2020 18.2 (11:20) 13 (00:00) 15.6 7.5 (13:30) 5.28 (13:30) 0 0 0 0 0
09-11-2020 18.8 (15:40) 12.1 (00:00) 15.4 5 (15:40) 3.06 (15:40) 0 0 0 0 0
08-11-2020 18.5 (16:20) 12.9 (00:00) 15.7 8.33 (14:50) 5.28 (14:50) 0 0 0 0 0
07-11-2020 19 (15:50) 11.5 (00:00) 15.3 6.67 (13:40) 3.61 (14:20) 0 0 0 0 0
06-11-2020 17.9 (16:50) 12.7 (00:00) 15.3 13.06 (00:30) 6.94 (02:10) 24.8 24.6 0.2 0 0
05-11-2020 17.9 (16:20) 12.3 (00:00) 15.1 12.22 (22:50) 8.33 (23:59) 1.2 0 0.2 0.4 0.6
04-11-2020 18.3 (15:30) 13.1 (00:00) 15.7 13.61 (14:50) 7.22 (16:00) 2 0.2 1.8 0 0
03-11-2020 22 (15:40) 14.7 (00:00) 18.3 6.39 (15:00) 4.44 (15:00) 0 0 0 0 0
02-11-2020 25.2 (12:30) 19.1 (00:00) 22.2 13.33 (01:20) 4.17 (01:20) 0 0 0 0 0
01-11-2020 -- (--) -- (--) -- -- (--) -- (--) -- -- -- -- --
31-10-2020 -- (--) -- (--) -- -- (--) -- (--) -- -- -- -- --
30-10-2020 -- (--) -- (--) -- -- (--) -- (--) -- -- -- -- --

Gráficas

Temp. máximas Temp. mínimas Temp. medias Precipitaciones Rachas de viento máximas Velocidades máximas media en intervalos de 10 minutos

Datos horarios

Fecha y hora oficial Temperatura (ºC) Velocidad del viento (km/h) Dirección del viento Racha (km/h) Dirección de racha Precipitación (mm) Presión (hPa) Tendencia (hPa) Humedad (%)
2020-11-28 23:00:00 12.8 5 Nordeste 10 Este 2 -- -- 93
2020-11-28 22:00:00 12.9 3 Norte 9 Norte 0.4 -- -- 93
2020-11-28 21:00:00 12.8 5 Nordeste 14 Nordeste 0 -- -- 89
2020-11-28 20:00:00 13.3 8 Nordeste 15 Nordeste 0 -- -- 88
2020-11-28 19:00:00 13.4 7 Nordeste 17 Nordeste 0 -- -- 87
2020-11-28 18:00:00 14.3 10 Norte 29 Norte 0 -- -- 79
2020-11-28 17:00:00 14.9 19 Norte 33 Norte 0 -- -- 75
2020-11-28 16:00:00 15.1 18 Norte 32 Norte 0 -- -- 75
2020-11-28 15:00:00 15.2 18 Norte 31 Norte 0 -- -- 74
2020-11-28 14:00:00 15.8 19 Norte 32 Nordeste 0 -- -- 72
2020-11-28 13:00:00 15.5 18 Norte 31 Norte 0 -- -- 76
2020-11-28 12:00:00 14.6 17 Norte 30 Norte 0 -- -- 79
2020-11-28 11:00:00 14.3 16 Norte 27 Norte 0 -- -- 83
2020-11-28 10:00:00 13.9 13 Nordeste 24 Nordeste 0 -- -- 83
2020-11-28 09:00:00 12.8 11 Nordeste 23 Norte 0 -- -- 87
2020-11-28 08:00:00 11.8 8 Nordeste 20 Nordeste 0 -- -- 93
2020-11-28 07:00:00 11.7 9 Nordeste 25 Norte 0.2 -- -- 94
2020-11-28 06:00:00 11.9 15 Nordeste 26 Norte 0.2 -- -- 95
2020-11-28 05:00:00 12.1 14 Nordeste 24 Norte 1 -- -- 96
2020-11-28 04:00:00 12.4 12 Norte 26 Norte 3 -- -- 96
2020-11-28 03:00:00 12.6 12 Nordeste 34 Norte 1.2 -- -- 97
2020-11-28 02:00:00 12.6 14 Nordeste 33 Norte 1.6 -- -- 96
2020-11-28 01:00:00 12.9 18 Norte 33 Nordeste 7.4 -- -- 96
2020-11-28 00:00:00 12.7 15 Norte 34 Nordeste 4.4 -- -- 96
2020-11-27 23:00:00 12.5 17 Norte 37 Norte 3.6 -- -- 96
2020-11-27 22:00:00 12.3 20 Nordeste 34 Nordeste 5.2 -- -- 96
2020-11-27 21:00:00 11.8 23 Nordeste 46 Norte 2 -- -- 95
2020-11-27 20:00:00 12.5 23 Norte 42 Norte 1.8 -- -- 95
2020-11-27 19:00:00 12.8 23 Norte 46 Norte 0.2 -- -- 92
2020-11-27 18:00:00 13 23 Norte 41 Norte 0.2 -- -- 85
2020-11-27 17:00:00 12.9 17 Nordeste 41 Norte 0 -- -- 87
2020-11-27 16:00:00 14.4 24 Norte 44 Norte 0 -- -- 75
2020-11-27 15:00:00 14.9 29 Norte 45 Nordeste 0 -- -- 67
2020-11-27 14:00:00 14.8 28 Norte 44 Norte 0 -- -- 66
2020-11-27 13:00:00 14.1 23 Norte 41 Norte 0 -- -- 65
2020-11-27 12:00:00 13.8 24 Norte 47 Norte 0 -- -- 68
2020-11-27 11:00:00 11.9 20 Nordeste 40 Norte 0.4 -- -- 90
2020-11-27 10:00:00 11.3 22 Norte 44 Norte 0.6 -- -- 90
2020-11-27 09:00:00 11.5 24 Norte 44 Norte 0 -- -- 85
2020-11-27 08:00:00 11.4 25 Norte 42 Norte 0 -- -- 81
2020-11-27 07:00:00 11.2 24 Norte 41 Norte 0 -- -- 82
2020-11-27 06:00:00 10.3 16 Nordeste 46 Norte 0.2 -- -- 87
2020-11-27 05:00:00 10.7 18 Nordeste 45 Norte 0 -- -- 84
2020-11-27 04:00:00 10.9 23 Norte 42 Nordeste 0 -- -- 87
2020-11-27 03:00:00 10.6 24 Nordeste 46 Norte 0 -- -- 84
2020-11-27 02:00:00 10.7 23 Norte 43 Nordeste 0 -- -- 88
2020-11-27 01:00:00 10.8 26 Norte 53 Nordeste 0 -- -- 91
2020-11-27 00:00:00 10.9 28 Norte 52 Norte 0.8 -- -- 92
2020-11-26 23:00:00 11.1 31 Norte 55 Norte 0 -- -- 83
2020-11-26 22:00:00 11.4 33 Norte 59 Norte 0 -- -- 83
2020-11-26 21:00:00 11.3 37 Norte 64 Norte 0 -- -- 79
2020-11-26 20:00:00 10.6 33 Nordeste 58 Norte 1.2 -- -- 93
2020-11-26 19:00:00 11.6 35 Norte 55 Norte 0 -- -- 82
2020-11-26 18:00:00 11.8 33 Norte 56 Norte 0 -- -- 88
2020-11-26 17:00:00 13 35 Norte 60 Norte 0 -- -- 78
2020-11-26 16:00:00 12.1 33 Norte 54 Norte 0.6 -- -- 92
2020-11-26 15:00:00 13 32 Norte 55 Nordeste 0 -- -- 92
2020-11-26 14:00:00 12.9 29 Norte 56 Norte 0.2 -- -- 85
2020-11-26 13:00:00 13.5 27 Norte 50 Norte 0 -- -- 82
2020-11-26 12:00:00 12.3 29 Norte 52 Norte 0 -- -- 94
2020-11-26 11:00:00 11.5 26 Norte 42 Nordeste 0.6 -- -- 94
2020-11-26 10:00:00 12.7 22 Norte 43 Norte 0 -- -- 79
2020-11-26 09:00:00 11.2 22 Norte 56 Norte 1.2 -- -- 88
2020-11-26 08:00:00 11.1 18 Nordeste 39 Nordeste 0.2 -- -- 87
2020-11-26 07:00:00 11.3 17 Nordeste 42 Norte 0 -- -- 85
2020-11-26 06:00:00 11.6 26 Norte 45 Norte 0 -- -- 75
2020-11-26 05:00:00 11.3 23 Norte 43 Norte 0 -- -- 79
2020-11-26 04:00:00 11 24 Norte 47 Norte 0 -- -- 82
2020-11-26 03:00:00 11.3 26 Norte 48 Norte 0.2 -- -- 85
2020-11-26 02:00:00 10.9 21 Nordeste 46 Norte 0 -- -- 88
2020-11-26 01:00:00 11.7 27 Norte 53 Norte 0 -- -- 75
2020-11-26 00:00:00 12 28 Norte 55 Norte 0 -- -- 80
2020-11-25 23:00:00 12.2 31 Norte 52 Norte 0 -- -- 77
2020-11-25 22:00:00 12 33 Norte 52 Norte 0 -- -- 73
2020-11-25 21:00:00 11.7 26 Nordeste 50 Norte 0 -- -- 76
2020-11-25 20:00:00 12.3 36 Norte 56 Norte 0 -- -- 76
2020-11-25 19:00:00 12.5 29 Norte 50 Nordeste 0 -- -- 85
2020-11-25 18:00:00 12.8 24 Norte 50 Norte 0 -- -- 93
2020-11-25 17:00:00 13.1 30 Nordeste 51 Norte 0.4 -- -- 94
2020-11-25 16:00:00 13.7 33 Norte 54 Nordeste 1 -- -- 94
2020-11-25 15:00:00 16 27 Norte 50 Norte 0 -- -- 83
2020-11-25 14:00:00 17.8 28 Norte 44 Norte 0 -- -- 70
2020-11-25 13:00:00 17.8 23 Nordeste 45 Norte 0 -- -- 68
2020-11-25 12:00:00 17.5 19 Nordeste 49 Norte 0 -- -- 70
2020-11-25 11:00:00 17.5 25 Nordeste 42 Nordeste 0 -- -- 64
2020-11-25 10:00:00 16.7 17 Nordeste 31 Norte 0 -- -- 65
2020-11-25 09:00:00 15.7 13 Nordeste 35 Nordeste 0 -- -- 48
2020-11-25 08:00:00 14.4 13 Nordeste 32 Este 0 -- -- 64
2020-11-25 07:00:00 15.6 22 Nordeste 41 Nordeste 0 -- -- 58
2020-11-25 06:00:00 15.1 15 Nordeste 28 Nordeste 0 -- -- 40
2020-11-25 05:00:00 16.3 15 Nordeste 25 Nordeste 0 -- -- 35
2020-11-25 04:00:00 16.4 14 Nordeste 22 Nordeste 0 -- -- 35
2020-11-25 03:00:00 14.8 7 Norte 15 Nordeste 0 -- -- 39
2020-11-25 02:00:00 16 5 Nordeste 15 Nordeste 0 -- -- 35
2020-11-25 01:00:00 16.2 0 Calma 9 Sudeste 0 -- -- 37
2020-11-25 00:00:00 15.4 6 Este 10 Sudeste 0 -- -- 40
2020-11-24 23:00:00 15.1 8 Este 15 Este 0 -- -- 39
2020-11-24 22:00:00 14.6 4 Sur 9 Sudeste 0 -- -- 64
2020-11-24 21:00:00 14.8 5 Nordeste 10 Norte 0 -- -- 51
2020-11-24 20:00:00 16.3 5 Nordeste 12 Nordeste 0 -- -- 32
2020-11-24 19:00:00 17.7 7 Nordeste 15 Norte 0 -- -- 31
2020-11-24 18:00:00 19.7 9 Norte 15 Norte 0 -- -- 30
2020-11-24 17:00:00 21.3 12 Norte 19 Noroeste 0 -- -- 29
2020-11-24 16:00:00 22.3 8 Norte 17 Norte 0 -- -- 26
2020-11-24 15:00:00 22 8 Noroeste 17 Oeste 0 -- -- 29
2020-11-24 14:00:00 22.2 7 Oeste 20 Norte 0 -- -- 32
2020-11-24 13:00:00 22 9 Noroeste 18 Oeste 0 -- -- 26
2020-11-24 12:00:00 21.8 7 Noroeste 14 Noroeste 0 -- -- 25
2020-11-24 11:00:00 21.2 8 Norte 13 Norte 0 -- -- 27
2020-11-24 10:00:00 18.8 0 Calma 8 Sudeste 0 -- -- 29
2020-11-24 09:00:00 16.8 6 Este 8 Este 0 -- -- 31
2020-11-24 08:00:00 16.3 6 Este 12 Sudeste 0 -- -- 31
2020-11-24 07:00:00 16.1 6 Sudeste 12 Sur 0 -- -- 31
2020-11-24 06:00:00 17.1 5 Sur 17 Sur 0 -- -- 30
2020-11-24 05:00:00 15.6 8 Sudeste 12 Sudeste 0 -- -- 35
2020-11-24 04:00:00 15.5 7 Sudeste 11 Sudeste 0 -- -- 40
2020-11-24 03:00:00 16.3 9 Este 18 Este 0 -- -- 45
2020-11-24 02:00:00 17 12 Nordeste 19 Este 0 -- -- 41
2020-11-24 01:00:00 16.3 0 Calma 7 Este 0 -- -- 41
2020-11-24 00:00:00 16.3 6 Sudeste 13 Sur 0 -- -- 42
2020-11-23 23:00:00 16.4 7 Sudeste 14 Sur 0 -- -- 40
2020-11-23 22:00:00 17.1 5 Sur 10 Sudeste 0 -- -- 40
2020-11-23 21:00:00 17.5 3 Sudeste 15 Este 0 -- -- 40
2020-11-23 20:00:00 17.1 10 Nordeste 16 Este 0 -- -- 44
2020-11-23 19:00:00 18 3 Nordeste 6 Norte 0 -- -- 57
2020-11-23 18:00:00 20.8 4 Noroeste 13 Oeste 0 -- -- 52
2020-11-23 17:00:00 21.9 5 Oeste 17 Sudoeste 0 -- -- 43
2020-11-23 16:00:00 22.3 13 Sur 28 Sur 0 -- -- 43
2020-11-23 15:00:00 22.2 21 Sudoeste 33 Sudoeste 0 -- -- 39
2020-11-23 14:00:00 22.1 21 Sudoeste 33 Sur 0 -- -- 39
2020-11-23 13:00:00 22.4 16 Sudoeste 27 Sur 0 -- -- 35
2020-11-23 12:00:00 22 8 Sudoeste 14 Sur 0 -- -- 37
2020-11-23 11:00:00 20.3 5 Sudoeste 10 Sudoeste 0 -- -- 37
2020-11-23 10:00:00 18.2 0 Calma 8 Norte 0 -- -- 38
2020-11-23 09:00:00 17 5 Nordeste 14 Este 0 -- -- 36
2020-11-23 08:00:00 15.3 6 Nordeste 10 Nordeste 0 -- -- 44
2020-11-23 07:00:00 15.7 4 Sudeste 9 Nordeste 0 -- -- 38
2020-11-23 06:00:00 15.7 0 Calma 6 Norte 0 -- -- 46
2020-11-23 05:00:00 15.7 0 Calma 3 Este 0 -- -- 49
2020-11-23 04:00:00 15.5 3 Sudeste 8 Sudeste 0 -- -- 44
2020-11-23 03:00:00 15.3 4 Sudeste 9 Sudeste 0 -- -- 44
2020-11-23 02:00:00 15.7 5 Sudeste 10 Sudeste 0 -- -- 44
2020-11-23 01:00:00 15.9 6 Sudeste 9 Sudeste 0 -- -- 44
2020-11-23 00:00:00 16.5 5 Sudeste 9 Sudeste 0 -- -- 41
2020-11-22 23:00:00 17.3 5 Sudeste 7 Sudeste 0 -- -- 37
2020-11-22 22:00:00 17.4 5 Este 8 Este 0 -- -- 37
2020-11-22 21:00:00 18 6 Nordeste 14 Nordeste 0 -- -- 37
2020-11-22 20:00:00 18.2 7 Nordeste 12 Nordeste 0 -- -- 38
2020-11-22 19:00:00 18.6 8 Nordeste 12 Nordeste 0 -- -- 41
2020-11-22 18:00:00 19.4 5 Nordeste 9 Noroeste 0 -- -- 42
2020-11-22 17:00:00 21.4 4 Noroeste 14 Oeste 0 -- -- 36
2020-11-22 16:00:00 23.1 6 Oeste 17 Oeste 0 -- -- 33
2020-11-22 15:00:00 22.5 7 Noroeste 19 Oeste 0 -- -- 31
2020-11-22 14:00:00 22.6 9 Noroeste 18 Oeste 0 -- -- 31
2020-11-22 13:00:00 22.2 6 Noroeste 15 Oeste 0 -- -- 33
2020-11-22 12:00:00 21.4 6 Sudoeste 13 Sudoeste 0 -- -- 33
2020-11-22 11:00:00 20.9 8 Sudoeste 14 Sudoeste 0 -- -- 34
2020-11-22 10:00:00 19.9 4 Oeste 9 Sur 0 -- -- 37
2020-11-22 09:00:00 17.4 5 Nordeste 9 Este 0 -- -- 41
2020-11-22 08:00:00 15.5 5 Este 9 Este 0 -- -- 41
2020-11-22 07:00:00 16.2 5 Este 14 Nordeste 0 -- -- 41
2020-11-22 06:00:00 16.4 3 Nordeste 9 Sudoeste 0 -- -- 41
2020-11-22 05:00:00 16.4 4 Sudeste 9 Sur 0 -- -- 40
2020-11-22 04:00:00 16.2 5 Este 12 Este 0 -- -- 42
2020-11-22 03:00:00 16.3 10 Nordeste 16 Este 0 -- -- 49
2020-11-22 02:00:00 16.1 11 Nordeste 14 Este 0 -- -- 50
2020-11-22 01:00:00 15.5 3 Nordeste 12 Sur 0 -- -- 50
2020-11-22 00:00:00 15.5 5 Sudeste 9 Sur 0 -- -- 57
2020-11-21 23:00:00 16.1 10 Este 15 Sudeste 0 -- -- 49
2020-11-21 22:00:00 15.7 4 Sudeste 9 Nordeste 0 -- -- 64
2020-11-21 21:00:00 16.1 6 Nordeste 17 Nordeste 0 -- -- 66
2020-11-21 20:00:00 16.4 12 Nordeste 17 Nordeste 0 -- -- 64
2020-11-21 19:00:00 17.2 8 Nordeste 13 Nordeste 0 -- -- 64
2020-11-21 18:00:00 18.7 3 Norte 9 Norte 0 -- -- 64
2020-11-21 17:00:00 20.8 7 Noroeste 15 Nordeste 0 -- -- 55
2020-11-21 16:00:00 22.6 5 Sudoeste 15 Oeste 0 -- -- 49
2020-11-21 15:00:00 22.2 9 Sudoeste 21 Sur 0 -- -- 52
2020-11-21 14:00:00 22.6 11 Sudoeste 20 Sudoeste 0 -- -- 47
2020-11-21 13:00:00 22.8 9 Sudoeste 16 Sur 0 -- -- 45
2020-11-21 12:00:00 22.6 5 Oeste 13 Noroeste 0 -- -- 41
2020-11-21 11:00:00 22 6 Sur 11 Sur 0 -- -- 34
2020-11-21 10:00:00 21.9 5 Sudeste 10 Sur 0 -- -- 34
2020-11-21 09:00:00 19.5 4 Sudeste 15 Sudeste 0 -- -- 37
2020-11-21 08:00:00 17.7 8 Sudeste 14 Sudeste 0 -- -- 36
2020-11-21 07:00:00 17.9 4 Sudeste 13 Sudeste 0 -- -- 37
2020-11-21 06:00:00 18.1 7 Sudeste 12 Sudeste 0 -- -- 35
2020-11-21 05:00:00 18.3 0 Calma 10 Nordeste 0 -- -- 35
2020-11-21 04:00:00 18.8 6 Nordeste 17 Este 0 -- -- 35
2020-11-21 03:00:00 19.4 13 Sudeste 20 Sudeste 0 -- -- 32
2020-11-21 02:00:00 17.9 4 Este 11 Sudeste 0 -- -- 37
2020-11-21 01:00:00 17.5 6 Sudeste 10 Sudeste 0 -- -- 43
2020-11-21 00:00:00 18.8 0 Calma 13 Sudeste 0 -- -- 36
2020-11-20 23:00:00 19.4 7 Sur 19 Sur 0 -- -- 36
2020-11-20 22:00:00 18.9 8 Sur 19 Sur 0 -- -- 40
2020-11-20 21:00:00 18.7 9 Sur 21 Sur 0 -- -- 45
2020-11-20 20:00:00 18 6 Sur 17 Sur 0 -- -- 55
2020-11-20 19:00:00 17.7 6 Sur 9 Sur 0 -- -- 76
2020-11-20 18:00:00 19.1 4 Sudoeste 13 Sur 0 -- -- 73
2020-11-20 17:00:00 20.7 10 Sudoeste 17 Sudoeste 0 -- -- 63
2020-11-20 16:00:00 21.8 8 Sudoeste 13 Oeste 0 -- -- 55
2020-11-20 15:00:00 22 8 Oeste 16 Oeste 0 -- -- 60
2020-11-20 14:00:00 22.3 5 Norte 15 Norte 0 -- -- 61
2020-11-20 13:00:00 -- 11 Norte 16 Norte -- -- -- --
2020-11-20 12:00:00 17.6 8 Sudoeste 18 Sudoeste 0 -- -- 85
2020-11-20 11:00:00 17.9 6 Oeste 12 Sur 0 -- -- 85
2020-11-20 10:00:00 17.8 4 Oeste 8 Oeste 0 -- -- 75
2020-11-20 09:00:00 15.8 0 Calma 5 Este 0 -- -- 79
2020-11-20 08:00:00 14.4 2 Sur 10 Nordeste 0 -- -- 75
2020-11-20 07:00:00 14.1 4 Sudeste 9 Nordeste 0 -- -- 73
2020-11-20 06:00:00 14.5 8 Nordeste 13 Este 0 -- -- 84
2020-11-20 05:00:00 14.2 3 Sudeste 8 Sur 0 -- -- 84
2020-11-20 04:00:00 14.4 4 Sudeste 14 Este 0 -- -- 84
2020-11-20 03:00:00 14.9 5 Sur 14 Sur 0 -- -- 82
2020-11-20 02:00:00 14.3 6 Sur 16 Sudeste 0 -- -- 84
2020-11-20 01:00:00 14.4 7 Sur 20 Sur 0 -- -- 83
2020-11-20 00:00:00 14.1 6 Sur 9 Sur 0 -- -- 90
2020-11-19 23:00:00 14.4 4 Sur 12 Sur 0 -- -- 85
2020-11-19 22:00:00 14.8 8 Sur 13 Sur 0 -- -- 87
2020-11-19 21:00:00 14.6 2 Sur 14 Este 0 -- -- 87
2020-11-19 20:00:00 15 9 Nordeste 13 Este 0 -- -- 92
2020-11-19 19:00:00 15.7 0 Calma 7 Sur 0 -- -- 87
2020-11-19 18:00:00 16.4 4 Norte 10 Norte 0 -- -- 89
2020-11-19 17:00:00 17.5 9 Noroeste 19 Norte 0 -- -- 86
2020-11-19 16:00:00 17.6 8 Sudoeste 22 Sudoeste 0 -- -- 85
2020-11-19 15:00:00 16.7 4 Noroeste 11 Noroeste 0 -- -- 92
2020-11-19 14:00:00 17 5 Sudoeste 10 Nordeste 0 -- -- 94
2020-11-19 13:00:00 17.1 3 Norte 17 Norte 0 -- -- 92
2020-11-19 12:00:00 16.7 5 Norte 15 Nordeste 0 -- -- 93
2020-11-19 11:00:00 16.8 6 Nordeste 18 Norte 0 -- -- 90
2020-11-19 10:00:00 16.2 8 Nordeste 18 Nordeste 0 -- -- 93
2020-11-19 09:00:00 15.4 5 Nordeste 14 Este 0 -- -- 94
2020-11-19 08:00:00 15.2 10 Este 33 Norte 0 -- -- 94
2020-11-19 07:00:00 15.6 15 Nordeste 31 Norte 0 -- -- 93
2020-11-19 06:00:00 15.3 5 Sudeste 15 Sudeste 0 -- -- 85
2020-11-19 05:00:00 14.7 3 Norte 9 Nordeste 0 -- -- 79
2020-11-19 04:00:00 15 6 Nordeste 12 Este 0 -- -- 67
2020-11-19 03:00:00 15.6 6 Sudeste 11 Sudeste 0 -- -- 78
2020-11-19 02:00:00 16 3 Sudeste 10 Noroeste 0 -- -- 85
2020-11-19 01:00:00 16.6 6 Nordeste 10 Nordeste 0 -- -- 44
2020-11-19 00:00:00 16.8 0 Calma 6 Sudeste 0 -- -- 65
2020-11-18 23:00:00 18.3 0 Calma 15 Este 0 -- -- 68
2020-11-18 22:00:00 20.2 9 Este 15 Este 0 -- -- 32
2020-11-18 21:00:00 20.4 11 Este 14 Este 0 -- -- 32
2020-11-18 20:00:00 20.7 9 Este 12 Este 0 -- -- 32
2020-11-18 19:00:00 21.4 7 Este 9 Este 0 -- -- 31
2020-11-18 18:00:00 24 3 Nordeste 8 Sur 0 -- -- 34
2020-11-18 17:00:00 24.9 4 Sudoeste 10 Oeste 0 -- -- 48
2020-11-18 16:00:00 24.8 5 Sudoeste 14 Noroeste 0 -- -- 44
2020-11-18 15:00:00 26.1 7 Noroeste 18 Noroeste 0 -- -- 25
2020-11-18 14:00:00 26.4 7 Noroeste 14 Oeste 0 -- -- 27
2020-11-18 13:00:00 25.7 6 Norte 13 Oeste 0 -- -- 28
2020-11-18 12:00:00 25.2 4 Nordeste 14 Nordeste 0 -- -- 27
2020-11-18 11:00:00 23.5 3 Nordeste 10 Sudoeste 0 -- -- 41
2020-11-18 10:00:00 24.2 5 Sur 8 Sudeste 0 -- -- 26
2020-11-18 09:00:00 21.7 5 Este 14 Nordeste 0 -- -- 31
2020-11-18 08:00:00 20.5 10 Este 14 Este 0 -- -- 31
2020-11-18 07:00:00 20.7 5 Este 10 Sudeste 0 -- -- 30
2020-11-18 06:00:00 20.7 7 Este 11 Este 0 -- -- 31
2020-11-18 05:00:00 21 6 Nordeste 9 Norte 0 -- -- 31
2020-11-18 04:00:00 20.7 5 Este 10 Este 0 -- -- 30
2020-11-18 03:00:00 20.4 8 Este 12 Nordeste 0 -- -- 31
2020-11-18 02:00:00 20.3 8 Este 10 Este 0 -- -- 31
2020-11-18 01:00:00 20 6 Este 12 Sudeste 0 -- -- 31
2020-11-18 00:00:00 20 8 Sudeste 14 Sudeste 0 -- -- 31
2020-11-17 23:00:00 19.8 6 Este 13 Sudeste 0 -- -- 31
2020-11-17 22:00:00 20.2 12 Sudeste 15 Sudeste 0 -- -- 31
2020-11-17 21:00:00 20.4 7 Sudeste 14 Sudeste 0 -- -- 31
2020-11-17 20:00:00 21.4 6 Sudeste 16 Sur 0 -- -- 29
2020-11-17 19:00:00 22.4 5 Sur 18 Sur 0 -- -- 28
2020-11-17 18:00:00 25.2 14 Sur 27 Sur 0 -- -- 25
2020-11-17 17:00:00 26.8 18 Sur 35 Sudoeste 0 -- -- 23
2020-11-17 16:00:00 26.9 23 Sur 37 Sur 0 -- -- 24
2020-11-17 15:00:00 27.2 26 Sur 43 Sur 0 -- -- 23
2020-11-17 14:00:00 27.5 15 Sur 25 Sudoeste 0 -- -- 29
2020-11-17 13:00:00 25.8 6 Sudoeste 25 Sur 0 -- -- 32
2020-11-17 12:00:00 26.6 15 Sur 24 Sur 0 -- -- 26
2020-11-17 11:00:00 25.9 14 Sur 22 Sur 0 -- -- 26
2020-11-17 10:00:00 25.4 15 Sur 33 Sur 0 -- -- 26
2020-11-17 09:00:00 24.4 15 Sur 30 Sur 0 -- -- 26
2020-11-17 08:00:00 23.5 17 Sur 30 Sur 0 -- -- 26
2020-11-17 07:00:00 23.3 15 Sur 28 Sur 0 -- -- 26
2020-11-17 06:00:00 23.6 17 Sur 34 Sur 0 -- -- 26
2020-11-17 05:00:00 23.4 13 Sur 30 Sur 0 -- -- 26
2020-11-17 04:00:00 22.7 12 Sur 23 Sudeste 0 -- -- 27
2020-11-17 03:00:00 21.6 9 Sur 20 Sudeste 0 -- -- 29
2020-11-17 02:00:00 21.6 9 Sur 21 Sur 0 -- -- 29
2020-11-17 01:00:00 20.8 7 Sur 15 Sur 0 -- -- 31
2020-11-17 00:00:00 21.8 10 Sur 21 Sur 0 -- -- 29
2020-11-16 23:00:00 20.9 7 Sur 15 Sur 0 -- -- 31
2020-11-16 22:00:00 20.7 7 Sur 15 Sur 0 -- -- 33
2020-11-16 21:00:00 19.5 5 Sur 13 Sur 0 -- -- 39
2020-11-16 20:00:00 19.1 6 Sur 10 Sur 0 -- -- 47
2020-11-16 19:00:00 19.8 7 Sur 17 Sur 0 -- -- 50
2020-11-16 18:00:00 21.5 6 Sur 12 Sur 0 -- -- 54
2020-11-16 17:00:00 23 9 Sudoeste 20 Sudoeste 0 -- -- 50
2020-11-16 16:00:00 23.7 12 Sudoeste 24 Sudoeste 0 -- -- 50
2020-11-16 15:00:00 23.2 12 Sudoeste 24 Sur 0 -- -- 58
2020-11-16 14:00:00 23.3 15 Sudoeste 24 Sur 0 -- -- 59
2020-11-16 13:00:00 21.3 9 Sudoeste 20 Sudoeste 0 -- -- 66
2020-11-16 12:00:00 19.8 8 Sur 14 Sudoeste 0 -- -- 65
2020-11-16 11:00:00 18.4 5 Sur 8 Sur 0 -- -- 75
2020-11-16 10:00:00 17.3 2 Sur 7 Sur 0 -- -- 81
2020-11-16 09:00:00 15.9 0 Calma 6 Este 0 -- -- 85
2020-11-16 08:00:00 15.3 0 Calma 5 Este 0 -- -- 88
2020-11-16 07:00:00 15.2 2 Sudeste 10 Sur 0.2 -- -- 89
2020-11-16 06:00:00 15.1 4 Sur 13 Nordeste 0 -- -- 91
2020-11-16 05:00:00 15.6 5 Nordeste 9 Norte 0 -- -- 95
2020-11-16 04:00:00 15.5 3 Sur 14 Sur 0 -- -- 94
2020-11-16 03:00:00 16 9 Sur 14 Sur 0 -- -- 94
2020-11-16 02:00:00 16.2 9 Sur 17 Sur 0 -- -- 93
2020-11-16 01:00:00 16.2 9 Sur 18 Sur 0 -- -- 95
2020-11-16 00:00:00 16.3 10 Sur 18 Sur 0 -- -- 96
2020-11-15 23:00:00 15.9 12 Sur 22 Sur 0 -- -- 97
2020-11-15 22:00:00 16 17 Sur 24 Sur 0 -- -- 98
2020-11-15 21:00:00 16.9 17 Sur 28 Sur 0 -- -- 98
2020-11-15 20:00:00 17.5 19 Sur 30 Sur 0 -- -- 98
2020-11-15 19:00:00 17.1 21 Sur 32 Sur 0 -- -- 98
2020-11-15 18:00:00 17.6 22 Sur 34 Sudoeste 0 -- -- 98
2020-11-15 17:00:00 17.6 25 Sur 34 Sudoeste 0 -- -- 97
2020-11-15 16:00:00 17.6 25 Sur 37 Sur 0 -- -- 98
2020-11-15 15:00:00 17.8 24 Sur 34 Sur 0.2 -- -- 97
2020-11-15 14:00:00 17.7 25 Sur 37 Sudoeste 0 -- -- 97
2020-11-15 13:00:00 18.1 27 Sur 38 Sur 0 -- -- 96
2020-11-15 12:00:00 17.4 24 Sur 33 Sur 0 -- -- 98
2020-11-15 11:00:00 17.1 25 Sudoeste 35 Sudoeste 0 -- -- 98
2020-11-15 10:00:00 17.3 27 Sur 36 Sur 0 -- -- 98
2020-11-15 09:00:00 17.3 28 Sur 41 Sur 0 -- -- 98
2020-11-15 08:00:00 17.1 26 Sur 39 Sudoeste 0 -- -- 98
2020-11-15 07:00:00 17.1 27 Sudoeste 40 Sur 0 -- -- 98
2020-11-15 06:00:00 17.1 27 Sur 41 Sur 0.2 -- -- 97
2020-11-15 05:00:00 16.7 27 Sur 40 Sur 0 -- -- 97
2020-11-15 04:00:00 16.5 22 Sur 42 Sur 0 -- -- 97
2020-11-15 03:00:00 17 30 Sur 48 Sur 0.2 -- -- 96
2020-11-15 02:00:00 17 27 Sur 46 Sur 0.4 -- -- 97
2020-11-15 01:00:00 16.9 28 Sur 49 Sur 0.2 -- -- 96
2020-11-15 00:00:00 17.1 31 Sur 59 Sur 0 -- -- 96
2020-11-14 23:00:00 17 31 Sur 48 Sur 0 -- -- 94
2020-11-14 22:00:00 17.1 31 Sur 47 Sur 0 -- -- 94
2020-11-14 21:00:00 17.3 24 Sur 47 Sur 0 -- -- 87
2020-11-14 20:00:00 17.2 26 Sur 47 Sur 0.2 -- -- 87
2020-11-14 19:00:00 17.4 28 Sur 52 Sur 0 -- -- 90
2020-11-14 18:00:00 18.1 34 Sur 54 Sudoeste 0 -- -- 85
2020-11-14 17:00:00 18.7 41 Sur 56 Sur 0 -- -- 83
2020-11-14 16:00:00 18.4 33 Sudoeste 60 Sur 0 -- -- 86
2020-11-14 15:00:00 19.8 36 Sur 55 Sur 0 -- -- 76
2020-11-14 14:00:00 20.6 40 Sur 60 Sur 0 -- -- 71
2020-11-14 13:00:00 20.3 39 Sur 60 Sudoeste 0 -- -- 71
2020-11-14 12:00:00 20.7 42 Sur 61 Sur 0 -- -- 64
2020-11-14 11:00:00 19.4 40 Sur 65 Sur 0 -- -- 73
2020-11-14 10:00:00 18.8 40 Sur 56 Sur 0 -- -- 73
2020-11-14 09:00:00 18 37 Sur 58 Sur 0 -- -- 84
2020-11-14 08:00:00 17.9 31 Sur 51 Sur 0 -- -- 80
2020-11-14 07:00:00 17.7 36 Sur 57 Sur 0 -- -- 86
2020-11-14 06:00:00 17.9 32 Sur 53 Sur 0 -- -- 77
2020-11-14 05:00:00 18.9 34 Sur 51 Sur 0 -- -- 75
2020-11-14 04:00:00 18.8 29 Sur 48 Sudoeste 0 -- -- 57
2020-11-14 03:00:00 19.8 32 Sur 49 Sur 0 -- -- 38
2020-11-14 02:00:00 20.9 36 Sur 51 Sur 0 -- -- 32
2020-11-14 01:00:00 20.8 28 Sur 48 Sur 0 -- -- 32
2020-11-14 00:00:00 20.5 29 Sur 42 Sur 0 -- -- 35
2020-11-13 23:00:00 18.6 21 Sur 44 Sur 0 -- -- 76
2020-11-13 22:00:00 21.1 28 Sur 54 Sur 0 -- -- 35
2020-11-13 21:00:00 20.4 31 Sur 50 Sur 0 -- -- 34
2020-11-13 20:00:00 18.4 23 Sur 36 Sur 0 -- -- 56
2020-11-13 19:00:00 19.2 26 Sur 42 Sur 0 -- -- 53
2020-11-13 18:00:00 19.4 20 Sur 29 Sur 0 -- -- 64
2020-11-13 17:00:00 22 17 Sur 36 Sur 0 -- -- 50
2020-11-13 16:00:00 23.2 26 Sur 54 Sur 0 -- -- 46
2020-11-13 15:00:00 21.8 32 Sur 46 Sur 0 -- -- 48
2020-11-13 14:00:00 23 27 Sur 47 Sur 0 -- -- 56
2020-11-13 13:00:00 23.8 30 Sur 41 Sur 0 -- -- 43
2020-11-13 12:00:00 24.7 23 Sur 41 Sur 0 -- -- 29
2020-11-13 11:00:00 24.2 23 Sur 36 Sur 0 -- -- 36
2020-11-13 10:00:00 24.4 21 Sur 36 Sur 0 -- -- 30
2020-11-13 09:00:00 21.7 13 Sur 22 Sur 0 -- -- 40
2020-11-13 08:00:00 21 8 Sur 21 Sudeste 0 -- -- 28
2020-11-13 07:00:00 19.1 4 Este 36 Sudeste 0 -- -- 52
2020-11-13 06:00:00 20.5 27 Sudeste 40 Sudeste 0 -- -- 41
2020-11-13 05:00:00 19.3 11 Sudeste 16 Sudeste 0 -- -- 52
2020-11-13 04:00:00 18.7 4 Nordeste 18 Este 0 -- -- 72
2020-11-13 03:00:00 19.9 6 Sur 12 Sur 0 -- -- 57
2020-11-13 02:00:00 20.2 0 Calma 15 Nordeste 0 -- -- 55
2020-11-13 01:00:00 19.2 5 Este 13 Sudeste 0 -- -- 60
2020-11-13 00:00:00 19.3 7 Sur 10 Sur 0 -- -- 62
2020-11-12 23:00:00 19.1 5 Sudeste 14 Este 0 -- -- 65
2020-11-12 22:00:00 19.7 2 Sudeste 16 Nordeste 0 -- -- 63
2020-11-12 21:00:00 19.3 5 Nordeste 12 Sur 0 -- -- 63
2020-11-12 20:00:00 19.6 4 Sudeste 11 Nordeste 0 -- -- 64
2020-11-12 19:00:00 20.7 4 Sudeste 10 Sudeste 0 -- -- 62
2020-11-12 18:00:00 20.8 7 Sudeste 16 Noroeste 0 -- -- 62
2020-11-12 17:00:00 22.1 6 Este 11 Sudeste 0 -- -- 57
2020-11-12 16:00:00 20 8 Oeste 13 Oeste 0 -- -- 83
2020-11-12 15:00:00 21.2 8 Sur 13 Sur 0 -- -- 78
2020-11-12 14:00:00 20.8 7 Sur 13 Sur 0 -- -- 67
2020-11-12 13:00:00 19.5 9 Sur 17 Sudoeste 0 -- -- 88
2020-11-12 12:00:00 20 4 Sudeste 12 Sur 0 -- -- 75
2020-11-12 11:00:00 20.4 5 Sur 12 Sur 0 -- -- 63
2020-11-12 10:00:00 20.6 6 Sur 12 Sur 0 -- -- 62
2020-11-12 09:00:00 18.8 7 Sudeste 13 Sudeste 0 -- -- 59
2020-11-12 08:00:00 18.5 5 Sur 8 Sur 0 -- -- 67
2020-11-12 07:00:00 19.2 3 Sur 10 Este 0 -- -- 60
2020-11-12 06:00:00 19.9 7 Este 10 Este 0 -- -- 61
2020-11-12 05:00:00 20.5 0 Calma 8 Nordeste 0 -- -- 59
2020-11-12 04:00:00 20.5 7 Nordeste 12 Nordeste 0 -- -- 60
2020-11-12 03:00:00 19.7 4 Nordeste 15 Este 0 -- -- 64
2020-11-12 02:00:00 19.1 4 Norte 14 Este 0 -- -- 78
2020-11-12 01:00:00 19.3 3 Sudoeste 12 Nordeste 0 -- -- 70
2020-11-12 00:00:00 19.8 8 Este 15 Este 0 -- -- 55
2020-11-11 23:00:00 19.6 12 Nordeste 22 Este 0 -- -- 60
2020-11-11 22:00:00 16.5 5 Sudeste 11 Nordeste 0 -- -- 89
2020-11-11 21:00:00 16.8 4 Nordeste 22 Este 0 -- -- 83
2020-11-11 20:00:00 16.7 4 Nordeste 9 Norte 0 -- -- 88
2020-11-11 19:00:00 16.9 0 Calma 8 Sur 0 -- -- 88
2020-11-11 18:00:00 17.7 5 Noroeste 12 Oeste 0 -- -- 80
2020-11-11 17:00:00 19.2 6 Norte 12 Nordeste 0 -- -- 78
2020-11-11 16:00:00 18.6 3 Oeste 13 Oeste 0 -- -- 81
2020-11-11 15:00:00 18.6 6 Norte 17 Norte 0 -- -- 81
2020-11-11 14:00:00 17.7 5 Oeste 13 Sur 0 -- -- 83
2020-11-11 13:00:00 17.4 5 Oeste 14 Oeste 0 -- -- 84
2020-11-11 12:00:00 17.5 6 Sudoeste 10 Oeste 0 -- -- 83
2020-11-11 11:00:00 17.2 11 Noroeste 18 Noroeste 0 -- -- 83
2020-11-11 10:00:00 16.6 7 Sur 15 Sudoeste 0 -- -- 83
2020-11-11 09:00:00 15.7 5 Sur 9 Sur 0 -- -- 85
2020-11-11 08:00:00 14.5 5 Sur 13 Nordeste 0 -- -- 86
2020-11-11 07:00:00 13.9 4 Nordeste 8 Sudeste 0 -- -- 85
2020-11-11 06:00:00 14.1 5 Este 6 Este 0 -- -- 80
2020-11-11 05:00:00 15 0 Calma 16 Sudeste 0 -- -- 71
2020-11-11 04:00:00 14.7 10 Sur 19 Sur 0 -- -- 84
2020-11-11 03:00:00 14 3 Sur 14 Sudeste 0 -- -- 84
2020-11-11 02:00:00 14.3 9 Sur 18 Sur 0 -- -- 85
2020-11-11 01:00:00 13.6 4 Sur 10 Sur 0 -- -- 82
2020-11-11 00:00:00 13.7 4 Sudeste 12 Sur 0 -- -- 84
2020-11-10 23:00:00 14.3 6 Sur 12 Sur 0 -- -- 85
2020-11-10 22:00:00 14.2 5 Sur 10 Sudeste 0 -- -- 82
2020-11-10 21:00:00 14.4 7 Este 18 Nordeste 0 -- -- 85
2020-11-10 20:00:00 14.8 14 Nordeste 22 Este 0 -- -- 83
2020-11-10 19:00:00 15.5 4 Este 11 Norte 0 -- -- 87
2020-11-10 18:00:00 15.9 7 Norte 17 Noroeste 0 -- -- 87
2020-11-10 17:00:00 16.3 7 Norte 15 Noroeste 0 -- -- 85
2020-11-10 16:00:00 16.6 9 Noroeste 17 Sur 0 -- -- 84
2020-11-10 15:00:00 17.5 7 Sudoeste 22 Sur 0 -- -- 80
2020-11-10 14:00:00 17.5 15 Sur 27 Sur 0 -- -- 81
2020-11-10 13:00:00 17.3 13 Sudoeste 21 Sur 0 -- -- 79
2020-11-10 12:00:00 17.3 11 Sur 20 Sudoeste 0 -- -- 80
2020-11-10 11:00:00 17.8 10 Sur 17 Sur 0 -- -- 72
2020-11-10 10:00:00 17.2 9 Sur 15 Sudoeste 0 -- -- 73
2020-11-10 09:00:00 15.6 5 Sudeste 12 Sudeste 0 -- -- 76
2020-11-10 08:00:00 13.1 7 Sudeste 13 Sudeste 0 -- -- 85
2020-11-10 07:00:00 13.2 4 Sudeste 9 Nordeste 0 -- -- 83
2020-11-10 06:00:00 13.7 3 Sudeste 17 Sudeste 0 -- -- 79
2020-11-10 05:00:00 14.5 10 Sur 19 Sur 0 -- -- 81
2020-11-10 04:00:00 14.6 8 Sur 18 Sur 0 -- -- 86
2020-11-10 03:00:00 14.7 12 Sur 19 Sur 0 -- -- 88
2020-11-10 02:00:00 13.6 5 Este 8 Este 0 -- -- 83
2020-11-10 01:00:00 13.6 3 Sudeste 8 Este 0 -- -- 84
2020-11-10 00:00:00 14.4 4 Sudeste 10 Este 0 -- -- 80
2020-11-09 23:00:00 15.3 7 Este 10 Este 0 -- -- 76
2020-11-09 22:00:00 15.8 2 Sudoeste 10 Sur 0 -- -- 78
2020-11-09 21:00:00 16.1 0 Calma 4 Sur 0 -- -- 85
2020-11-09 20:00:00 16 0 Calma 10 Sudoeste 0 -- -- 85
2020-11-09 19:00:00 16.4 6 Sur 10 Sur 0 -- -- 87
2020-11-09 18:00:00 17 3 Sudoeste 12 Sur 0 -- -- 84
2020-11-09 17:00:00 18.6 7 Sudoeste 17 Sudoeste 0 -- -- 77
2020-11-09 16:00:00 18.3 10 Sudoeste 18 Sudoeste 0 -- -- 70
2020-11-09 15:00:00 18.5 6 Sur 14 Sudoeste 0 -- -- 68
2020-11-09 14:00:00 17.7 5 Sudoeste 15 Sur 0 -- -- 72
2020-11-09 13:00:00 17.9 11 Sudoeste 18 Sudoeste 0 -- -- 73
2020-11-09 12:00:00 18 7 Sudoeste 15 Oeste 0 -- -- 69
2020-11-09 11:00:00 17.4 8 Sudoeste 17 Sudoeste 0 -- -- 73
2020-11-09 10:00:00 16.6 4 Sur 10 Sur 0 -- -- 70
2020-11-09 09:00:00 14.7 3 Este 10 Sudeste 0 -- -- 72
2020-11-09 08:00:00 12.4 4 Sudeste 11 Sudeste 0 -- -- 78
2020-11-09 07:00:00 12.4 9 Sudeste 13 Sudeste 0 -- -- 79
2020-11-09 06:00:00 12.4 6 Sudeste 10 Sudeste 0 -- -- 78
2020-11-09 05:00:00 12.5 8 Sudeste 12 Sudeste 0 -- -- 79
2020-11-09 04:00:00 12.3 5 Este 10 Este 0 -- -- 76
2020-11-09 03:00:00 12.2 6 Sudeste 10 Sudeste 0 -- -- 78
2020-11-09 02:00:00 12.4 8 Sudeste 12 Sudeste 0 -- -- 83
2020-11-09 01:00:00 13.1 5 Sudeste 12 Sudeste 0 -- -- 87
2020-11-09 00:00:00 12.9 7 Sudeste 10 Sudeste 0 -- -- 88
2020-11-08 23:00:00 13.2 0 Calma 9 Este 0 -- -- 84
2020-11-08 22:00:00 13.6 4 Sudeste 12 Sudeste 0 -- -- 86
2020-11-08 21:00:00 13.8 6 Sudeste 10 Sudeste 0 -- -- 83
2020-11-08 20:00:00 14.7 3 Sudeste 6 Sur 0 -- -- 82
2020-11-08 19:00:00 15.6 6 Sur 13 Sur 0 -- -- 77
2020-11-08 18:00:00 17.4 8 Nordeste 20 Norte 0 -- -- 72
2020-11-08 17:00:00 17.7 15 Norte 27 Norte 0 -- -- 71
2020-11-08 16:00:00 17.9 16 Norte 29 Norte 0 -- -- 70
2020-11-08 15:00:00 18 18 Norte 30 Norte 0 -- -- 70
2020-11-08 14:00:00 18 16 Norte 25 Norte 0 -- -- 70
2020-11-08 13:00:00 17.2 14 Norte 23 Norte 0 -- -- 74
2020-11-08 12:00:00 16.3 12 Norte 21 Norte 0 -- -- 73
2020-11-08 11:00:00 16.7 8 Nordeste 16 Nordeste 0 -- -- 66
2020-11-08 10:00:00 16.2 5 Norte 12 Norte 0 -- -- 70
2020-11-08 09:00:00 15 4 Este 11 Este 0 -- -- 70
2020-11-08 08:00:00 13.4 4 Nordeste 5 Nordeste 0 -- -- 81
2020-11-08 07:00:00 13.9 0 Calma 8 Este 0 -- -- 84
2020-11-08 06:00:00 13.9 8 Este 12 Este 0 -- -- 80
2020-11-08 05:00:00 14.2 0 Calma 4 Este 0 -- -- 83
2020-11-08 04:00:00 13.9 4 Norte 10 Norte 0 -- -- 77
2020-11-08 03:00:00 13 9 Este 13 Este 0 -- -- 77
2020-11-08 02:00:00 13.6 4 Sudeste 6 Este 0 -- -- 80
2020-11-08 01:00:00 14 3 Sudeste 6 Sudeste 0 -- -- 76
2020-11-08 00:00:00 13.5 0 Calma 6 Este 0 -- -- 75
2020-11-07 23:00:00 13.3 0 Calma 6 Este 0 -- -- 76
2020-11-07 22:00:00 13.2 4 Sudeste 6 Este 0 -- -- 78
2020-11-07 21:00:00 13.6 5 Este 7 Este 0 -- -- 73
2020-11-07 20:00:00 14.1 2 Sudeste 7 Sur 0 -- -- 74
2020-11-07 19:00:00 15.3 2 Sur 13 Sudoeste 0 -- -- 68
2020-11-07 18:00:00 17.5 6 Sudoeste 14 Sudoeste 0 -- -- 61
2020-11-07 17:00:00 17.2 8 Sudoeste 19 Sudoeste 0 -- -- 67
2020-11-07 16:00:00 18.9 8 Sudoeste 17 Oeste 0 -- -- 53
2020-11-07 15:00:00 18.8 12 Sudoeste 22 Sudoeste 0 -- -- 53
2020-11-07 14:00:00 18.8 12 Sudoeste 24 Sudoeste 0 -- -- 55
2020-11-07 13:00:00 17.9 10 Sudoeste 21 Sudeste 0 -- -- 62
2020-11-07 12:00:00 17.2 9 Sudoeste 18 Sur 0 -- -- 69
2020-11-07 11:00:00 16.9 7 Sur 15 Sur 0 -- -- 70
2020-11-07 10:00:00 16 8 Sur 13 Sur 0 -- -- 76
2020-11-07 09:00:00 14.4 4 Sudeste 8 Sudeste 0 -- -- 80
2020-11-07 08:00:00 12.5 0 Calma 8 Este 0 -- -- 86
2020-11-07 07:00:00 11.5 5 Sudeste 10 Este 0 -- -- 79
2020-11-07 06:00:00 11.6 8 Este 11 Este 0 -- -- 83
2020-11-07 05:00:00 11.6 6 Sudeste 12 Sudeste 0 -- -- 83
2020-11-07 04:00:00 11.6 8 Sudeste 13 Sudeste 0 -- -- 82
2020-11-07 03:00:00 11.8 7 Sudeste 10 Sudeste 0 -- -- 86
2020-11-07 02:00:00 12 5 Sudeste 9 Sudeste 0 -- -- 86
2020-11-07 01:00:00 12 6 Sudeste 9 Sudeste 0 -- -- 80
2020-11-07 00:00:00 12.7 3 Este 6 Este 0 -- -- 84
2020-11-06 23:00:00 12.8 5 Este 9 Este 0 -- -- 83
2020-11-06 22:00:00 12.8 6 Este 9 Este 0 -- -- 81
2020-11-06 21:00:00 12.8 4 Nordeste 8 Este 0 -- -- 78
2020-11-06 20:00:00 13 2 Este 7 Norte 0 -- -- 77
2020-11-06 19:00:00 14.4 2 Norte 8 Oeste 0 -- -- 74
2020-11-06 18:00:00 16.7 5 Noroeste 17 Oeste 0 -- -- 68
2020-11-06 17:00:00 17.5 10 Sudoeste 17 Sudoeste 0 -- -- 70
2020-11-06 16:00:00 16.8 8 Oeste 19 Oeste 0 -- -- 70
2020-11-06 15:00:00 17.5 9 Sudoeste 21 Sudoeste 0 -- -- 70
2020-11-06 14:00:00 16.8 6 Oeste 18 Oeste 0 -- -- 69
2020-11-06 13:00:00 16.8 9 Sur 21 Sudoeste 0 -- -- 70
2020-11-06 12:00:00 15.9 8 Sudoeste 19 Oeste 0 -- -- 81
2020-11-06 11:00:00 15.3 5 Oeste 13 Oeste 0 -- -- 85
2020-11-06 10:00:00 14.6 7 Oeste 14 Oeste 0 -- -- 91
2020-11-06 09:00:00 13.6 3 Sudoeste 12 Oeste 0 -- -- 96
2020-11-06 08:00:00 13.8 5 Sudoeste 13 Sur 0 -- -- 97
2020-11-06 07:00:00 13.1 5 Sudoeste 28 Oeste 0.2 -- -- 98
2020-11-06 06:00:00 13.5 12 Sudoeste 37 Sur 7 -- -- 98
2020-11-06 05:00:00 13.4 22 Sur 33 Sudoeste 0 -- -- 97
2020-11-06 04:00:00 13.6 21 Sur 33 Sudoeste 0.2 -- -- 97
2020-11-06 03:00:00 14.1 18 Sudoeste 41 Sudoeste 0.6 -- -- 96
2020-11-06 02:00:00 14.3 15 Sudoeste 37 Sur 1 -- -- 97
2020-11-06 01:00:00 13.5 12 Sudoeste 47 Sur 15.8 -- -- 95
2020-11-06 00:00:00 14.1 30 Sur 44 Sur 0 -- -- 86
2020-11-05 23:00:00 13.6 19 Sur 44 Sur 0.6 -- -- 88
2020-11-05 22:00:00 14.2 19 Sur 35 Sur 0 -- -- 78
2020-11-05 21:00:00 -- -- -- -- -- -- -- -- --
2020-11-05 20:00:00 -- -- -- -- -- -- -- -- --
2020-11-05 19:00:00 -- -- -- -- -- -- -- -- --
2020-11-05 18:00:00 -- -- -- -- -- -- -- -- --
2020-11-05 17:00:00 -- -- -- -- -- -- -- -- --
2020-11-05 16:00:00 -- -- -- -- -- -- -- -- --
2020-11-05 15:00:00 -- -- -- -- -- -- -- -- --
2020-11-05 14:00:00 -- -- -- -- -- -- -- -- --
2020-11-05 13:00:00 -- -- -- -- -- -- -- -- --
2020-11-05 12:00:00 15.2 -- -- -- -- 0 -- -- --
2020-11-05 11:00:00 14.8 4 Norte 23 Nordeste 0 -- -- 70
2020-11-05 10:00:00 13.2 13 Norte 24 Nordeste 0 -- -- 91
2020-11-05 09:00:00 13.5 10 Nordeste 20 Nordeste 0 -- -- 86
2020-11-05 08:00:00 -- -- -- -- -- -- -- -- --
2020-11-05 07:00:00 -- -- -- -- -- -- -- -- --
2020-11-05 06:00:00 -- -- -- -- -- -- -- -- --
2020-11-05 05:00:00 -- -- -- -- -- -- -- -- --
2020-11-05 04:00:00 -- -- -- -- -- -- -- -- --
2020-11-05 03:00:00 -- -- -- -- -- -- -- -- --
2020-11-05 02:00:00 -- -- -- -- -- -- -- -- --
2020-11-05 01:00:00 -- -- -- -- -- -- -- -- --
2020-11-05 00:00:00 -- -- -- -- -- -- -- -- --
2020-11-04 23:00:00 -- -- -- -- -- -- -- -- --
2020-11-04 22:00:00 -- -- -- -- -- -- -- -- --
2020-11-04 21:00:00 -- -- -- -- -- -- -- -- --
2020-11-04 20:00:00 -- -- -- -- -- -- -- -- --
2020-11-04 19:00:00 -- -- -- -- -- -- -- -- --
2020-11-04 18:00:00 -- -- -- -- -- -- -- -- --
2020-11-04 17:00:00 -- -- -- -- -- -- -- -- --
2020-11-04 16:00:00 -- -- -- -- -- -- -- -- --
2020-11-04 15:00:00 -- -- -- -- -- -- -- -- --
2020-11-04 14:00:00 -- -- -- -- -- -- -- -- --
2020-11-04 13:00:00 -- -- -- -- -- -- -- -- --
2020-11-04 12:00:00 -- -- -- -- -- -- -- -- --
2020-11-04 11:00:00 -- -- -- -- -- -- -- -- --
2020-11-04 10:00:00 -- -- -- -- -- -- -- -- --
2020-11-04 09:00:00 -- -- -- -- -- -- -- -- --
2020-11-04 08:00:00 -- -- -- -- -- -- -- -- --
2020-11-04 07:00:00 -- -- -- -- -- -- -- -- --
2020-11-04 06:00:00 -- -- -- -- -- -- -- -- --
2020-11-04 05:00:00 -- -- -- -- -- -- -- -- --
2020-11-04 04:00:00 -- -- -- -- -- -- -- -- --
2020-11-04 03:00:00 -- -- -- -- -- -- -- -- --
2020-11-04 02:00:00 -- -- -- -- -- -- -- -- --
2020-11-04 01:00:00 -- -- -- -- -- -- -- -- --
2020-11-04 00:00:00 -- -- -- -- -- -- -- -- --
2020-11-03 23:00:00 -- -- -- -- -- -- -- -- --
2020-11-03 22:00:00 -- -- -- -- -- -- -- -- --
2020-11-03 21:00:00 -- -- -- -- -- -- -- -- --
2020-11-03 20:00:00 -- -- -- -- -- -- -- -- --
2020-11-03 19:00:00 -- -- -- -- -- -- -- -- --
2020-11-03 18:00:00 -- -- -- -- -- -- -- -- --
2020-11-03 17:00:00 -- -- -- -- -- -- -- -- --
2020-11-03 16:00:00 -- -- -- -- -- -- -- -- --
2020-11-03 15:00:00 -- -- -- -- -- -- -- -- --
2020-11-03 14:00:00 -- -- -- -- -- -- -- -- --
2020-11-03 13:00:00 -- -- -- -- -- -- -- -- --
2020-11-03 12:00:00 -- -- -- -- -- -- -- -- --
2020-11-03 11:00:00 -- -- -- -- -- -- -- -- --
2020-11-03 10:00:00 -- -- -- -- -- -- -- -- --
2020-11-03 09:00:00 -- -- -- -- -- -- -- -- --
2020-11-03 08:00:00 -- -- -- -- -- -- -- -- --
2020-11-03 07:00:00 -- -- -- -- -- -- -- -- --
2020-11-03 06:00:00 -- -- -- -- -- -- -- -- --
2020-11-03 05:00:00 -- -- -- -- -- -- -- -- --
2020-11-03 04:00:00 -- -- -- -- -- -- -- -- --
2020-11-03 03:00:00 -- -- -- -- -- -- -- -- --
2020-11-03 02:00:00 -- -- -- -- -- -- -- -- --
2020-11-03 01:00:00 -- -- -- -- -- -- -- -- --
2020-11-03 00:00:00 -- -- -- -- -- -- -- -- --
2020-11-02 23:00:00 -- -- -- -- -- -- -- -- --
2020-11-02 22:00:00 -- -- -- -- -- -- -- -- --
2020-11-02 21:00:00 -- -- -- -- -- -- -- -- --
2020-11-02 20:00:00 -- -- -- -- -- -- -- -- --
2020-11-02 19:00:00 -- -- -- -- -- -- -- -- --
2020-11-02 18:00:00 -- -- -- -- -- -- -- -- --
2020-11-02 17:00:00 -- -- -- -- -- -- -- -- --
2020-11-02 16:00:00 -- -- -- -- -- -- -- -- --
2020-11-02 15:00:00 -- -- -- -- -- -- -- -- --
2020-11-02 14:00:00 -- -- -- -- -- -- -- -- --
2020-11-02 13:00:00 -- -- -- -- -- -- -- -- --
2020-11-02 12:00:00 -- -- -- -- -- -- -- -- --
2020-11-02 11:00:00 -- -- -- -- -- -- -- -- --
2020-11-02 10:00:00 -- -- -- -- -- -- -- -- --
2020-11-02 09:00:00 -- -- -- -- -- -- -- -- --
2020-11-02 08:00:00 -- -- -- -- -- -- -- -- --
2020-11-02 07:00:00 -- -- -- -- -- -- -- -- --
2020-11-02 06:00:00 -- -- -- -- -- -- -- -- --
2020-11-02 05:00:00 -- -- -- -- -- -- -- -- --
2020-11-02 04:00:00 -- -- -- -- -- -- -- -- --
2020-11-02 03:00:00 -- -- -- -- -- -- -- -- --
2020-11-02 02:00:00 -- -- -- -- -- -- -- -- --
2020-11-02 01:00:00 -- -- -- -- -- -- -- -- --
2020-11-02 00:00:00 -- -- -- -- -- -- -- -- --
2020-11-01 23:00:00 -- -- -- -- -- -- -- -- --
2020-11-01 22:00:00 -- -- -- -- -- -- -- -- --
2020-11-01 21:00:00 -- -- -- -- -- -- -- -- --
2020-11-01 20:00:00 -- -- -- -- -- -- -- -- --
2020-11-01 19:00:00 -- -- -- -- -- -- -- -- --
2020-11-01 18:00:00 -- -- -- -- -- -- -- -- --
2020-11-01 17:00:00 -- -- -- -- -- -- -- -- --
2020-11-01 16:00:00 -- -- -- -- -- -- -- -- --
2020-11-01 15:00:00 -- -- -- -- -- -- -- -- --
2020-11-01 14:00:00 -- -- -- -- -- -- -- -- --
2020-11-01 13:00:00 -- -- -- -- -- -- -- -- --
2020-11-01 12:00:00 -- -- -- -- -- -- -- -- --
2020-11-01 11:00:00 -- -- -- -- -- -- -- -- --
2020-11-01 10:00:00 -- -- -- -- -- -- -- -- --
2020-11-01 09:00:00 -- -- -- -- -- -- -- -- --
2020-11-01 08:00:00 -- -- -- -- -- -- -- -- --
2020-11-01 07:00:00 -- -- -- -- -- -- -- -- --
2020-11-01 06:00:00 -- -- -- -- -- -- -- -- --
2020-11-01 05:00:00 -- -- -- -- -- -- -- -- --
2020-11-01 04:00:00 -- -- -- -- -- -- -- -- --
2020-11-01 03:00:00 -- -- -- -- -- -- -- -- --
2020-11-01 02:00:00 -- -- -- -- -- -- -- -- --
2020-11-01 01:00:00 -- -- -- -- -- -- -- -- --
2020-11-01 00:00:00 -- -- -- -- -- -- -- -- --
2020-10-31 23:00:00 -- -- -- -- -- -- -- -- --
2020-10-31 22:00:00 -- -- -- -- -- -- -- -- --
2020-10-31 21:00:00 -- -- -- -- -- -- -- -- --
2020-10-31 20:00:00 -- -- -- -- -- -- -- -- --
2020-10-31 19:00:00 -- -- -- -- -- -- -- -- --
2020-10-31 18:00:00 -- -- -- -- -- -- -- -- --
2020-10-31 17:00:00 -- -- -- -- -- -- -- -- --
2020-10-31 16:00:00 -- -- -- -- -- -- -- -- --
2020-10-31 15:00:00 -- -- -- -- -- -- -- -- --
2020-10-31 14:00:00 -- -- -- -- -- -- -- -- --
2020-10-31 13:00:00 -- -- -- -- -- -- -- -- --
2020-10-31 12:00:00 -- -- -- -- -- -- -- -- --
2020-10-31 11:00:00 -- -- -- -- -- -- -- -- --
2020-10-31 10:00:00 -- -- -- -- -- -- -- -- --
2020-10-31 09:00:00 -- -- -- -- -- -- -- -- --
2020-10-31 08:00:00 -- -- -- -- -- -- -- -- --
2020-10-31 07:00:00 -- -- -- -- -- -- -- -- --
2020-10-31 06:00:00 -- -- -- -- -- -- -- -- --
2020-10-31 05:00:00 -- -- -- -- -- -- -- -- --
2020-10-31 04:00:00 -- -- -- -- -- -- -- -- --
2020-10-31 03:00:00 -- -- -- -- -- -- -- -- --
2020-10-31 02:00:00 -- -- -- -- -- -- -- -- --
2020-10-31 01:00:00 -- -- -- -- -- -- -- -- --
2020-10-31 00:00:00 -- -- -- -- -- -- -- -- --
2020-10-30 23:00:00 -- -- -- -- -- -- -- -- --
2020-10-30 22:00:00 -- -- -- -- -- -- -- -- --
2020-10-30 21:00:00 -- -- -- -- -- -- -- -- --
2020-10-30 20:00:00 -- -- -- -- -- -- -- -- --
2020-10-30 19:00:00 -- -- -- -- -- -- -- -- --
2020-10-30 18:00:00 -- -- -- -- -- -- -- -- --
2020-10-30 17:00:00 -- -- -- -- -- -- -- -- --
2020-10-30 16:00:00 -- -- -- -- -- -- -- -- --
2020-10-30 15:00:00 -- -- -- -- -- -- -- -- --
2020-10-30 14:00:00 -- -- -- -- -- -- -- -- --
2020-10-30 13:00:00 -- -- -- -- -- -- -- -- --
2020-10-30 12:00:00 -- -- -- -- -- -- -- -- --
2020-10-30 11:00:00 -- -- -- -- -- -- -- -- --
2020-10-30 10:00:00 -- -- -- -- -- -- -- -- --
2020-10-30 09:00:00 -- -- -- -- -- -- -- -- --
2020-10-30 08:00:00 -- -- -- -- -- -- -- -- --
2020-10-30 07:00:00 -- -- -- -- -- -- -- -- --
2020-10-30 06:00:00 -- -- -- -- -- -- -- -- --
2020-10-30 05:00:00 -- -- -- -- -- -- -- -- --
2020-10-30 04:00:00 -- -- -- -- -- -- -- -- --
2020-10-30 03:00:00 -- -- -- -- -- -- -- -- --
2020-10-30 02:00:00 -- -- -- -- -- -- -- -- --
2020-10-30 01:00:00 -- -- -- -- -- -- -- -- --
2020-10-30 00:00:00 -- -- -- -- -- -- -- -- --